Utah County RPA :: 3FORTHALL

liberation: 2020-09-20  08:30     latitude: 43.034722     longitude: -112.331944 138 birds
# LOFT PRING MILES ARRIVAL SPEED ToWin
1 Riley Allred AU20-UCA-136 204.725 2020-09-20 12:43:15.165 1422.755 00:00:00
2 Craig Allred AU20-UVI-361 204.725 2020-09-20 12:43:15.996 1422.677 00:00:01
3 Riley Allred AU20-UCA-127 204.725 2020-09-20 12:44:30.880 1415.701 00:01:16
4 Cole Allred AU20-NLI-2015 204.725 2020-09-20 12:44:31.244 1415.667 00:01:16
5 Riley Allred AU20-UCA-170 204.725 2020-09-20 12:44:34.400 1415.374 00:01:19
6 Sherwood Loft AU20-UCA-417 212.275 2020-09-20 12:57:55.385 1394.442 00:05:20
7 Craig Allred AU20-UVI-329 204.725 2020-09-20 12:49:31.925 1388.332 00:06:17
8 Riley Allred AU20-UCA-119 204.725 2020-09-20 12:49:34.020 1388.145 00:06:19
9 Riley Allred AU20-UCA-169 204.725 2020-09-20 12:49:37.120 1387.868 00:06:22
10 Cole Allred AU20-NLI-2121 204.725 2020-09-20 12:51:58.531 1375.383 00:08:43
11 Riley Allred AU20-UCA-102 204.725 2020-09-20 12:52:04.153 1374.891 00:08:49
12 Riley Allred AU20-UCA-147 204.725 2020-09-20 12:52:23.655 1373.188 00:09:08
13 Dry Creek Lofts AU20-NEBO-311 210.271 2020-09-20 13:00:17.116 1369.211 00:10:10
14 Dry Creek Lofts AU20-NEBO-332 210.271 2020-09-20 13:00:27.228 1368.358 00:10:20
15 Dry Creek Lofts AU20-NEBO-329 210.271 2020-09-20 13:01:41.006 1362.165 00:11:34
16 Peery Loft AU20-UCA-0033 208.66 2020-09-20 12:59:44.850 1361.430 00:11:38
17 Dry Creek Lofts AU20-NEBO-361 210.271 2020-09-20 13:03:59.095 1350.723 00:13:52
18 Dry Creek Lofts AU20-NEBO-328 210.271 2020-09-20 13:04:00.418 1350.614 00:13:54
19 Iron Will AU20-UCA-0222 208.295 2020-09-20 13:01:30.250 1350.252 00:13:50
20 Cole Allred AU20-HARM-1689 204.725 2020-09-20 12:57:59.878 1344.475 00:14:45
21 Cole Allred AU20-NLI-2417 204.725 2020-09-20 12:58:07.866 1343.807 00:14:53
22 Cole Allred AU20-HARM-1695 204.725 2020-09-20 12:58:13.854 1343.307 00:14:59
23 Riley Allred AU20-UCA-150 204.725 2020-09-20 12:58:17.619 1342.993 00:15:02
24 Cole Allred AU20-HARM-2617 204.725 2020-09-20 12:58:20.521 1342.751 00:15:05
25 Peery Loft AU20-UCA-0049 208.66 2020-09-20 13:05:45.547 1331.750 00:17:38
26 Dry Creek Lofts AU20-NEBO-356 210.271 2020-09-20 13:08:56.558 1326.716 00:18:50
27 Dry Creek Lofts AU20-NEBO-333 210.271 2020-09-20 13:10:28.161 1319.494 00:20:21
28 Craig Allred AU20-UVI-303 204.725 2020-09-20 13:03:23.633 1317.939 00:20:08
29 Riley Allred AU20-UCA-161 204.725 2020-09-20 13:03:26.629 1317.699 00:20:11
30 Dry Creek Lofts AU20-NEBO-336 210.271 2020-09-20 13:11:00.036 1316.999 00:20:53
31 Cole Allred AU20-NLI-2419 204.725 2020-09-20 13:04:22.820 1313.201 00:21:08
32 Sherwood Loft AU20-UCA-454 212.275 2020-09-20 13:15:30.099 1308.585 00:22:55
33 Sherwood Loft AU20-NEBO-278 212.275 2020-09-20 13:15:35.077 1308.205 00:23:00
34 Sherwood Loft AU20-UCA-427 212.275 2020-09-20 13:17:11.100 1300.915 00:24:36
35 Dry Creek Lofts AU20-NEBO-338 210.271 2020-09-20 13:14:55.706 1298.844 00:24:49
36 Peery Loft AU20-UCA-0067 208.66 2020-09-20 13:16:55.968 1279.889 00:28:49
37 Cole Allred AU20-NLI-2004 204.725 2020-09-20 13:12:19.558 1276.243 00:29:04
38 Dry Creek Lofts AU20-NEBO-327 210.271 2020-09-20 13:21:35.901 1269.135 00:31:29
39 Dry Creek Lofts AU20-NEBO-340 210.271 2020-09-20 13:29:05.434 1237.343 00:38:59
40 Riley Allred AU20-UCA-145 204.725 2020-09-20 13:21:23.736 1236.520 00:38:09
41 Dry Creek Lofts AU20-NEBO-305 210.271 2020-09-20 13:29:46.224 1234.537 00:39:39
42 Sherwood Loft AU20-NEBO-284 212.275 2020-09-20 13:32:46.321 1233.942 00:40:11
43 Sherwood Loft AU20-NEBO-279 212.275 2020-09-20 13:33:00.409 1232.986 00:40:25
44 Cole Allred AU20-NLI-2503 204.725 2020-09-20 13:22:43.741 1230.888 00:39:29
45 Dry Creek Lofts AU20-NEBO-301 210.271 2020-09-20 13:31:46.743 1226.320 00:41:40
46 Ross Johnson AU20-NEBO-45 203.416 2020-09-20 13:23:13.543 1220.947 00:41:36
47 Ross Johnson AU20-NEBO-20 203.416 2020-09-20 13:26:41.677 1206.671 00:45:04
48 Ross Johnson AU20-NEBO-25 203.416 2020-09-20 13:26:42.061 1206.645 00:45:04
49 Iron Will AU20-UCA-0262 208.295 2020-09-20 13:34:08.242 1205.373 00:46:28
50 Iron Will AU20-UCA-0265 208.295 2020-09-20 13:34:09.819 1205.269 00:46:30
51 Peery Loft AU20-UCA-0025 208.66 2020-09-20 13:36:27.318 1198.355 00:48:20
52 Peery Loft AU20-UCA-0003 208.66 2020-09-20 13:36:29.306 1198.225 00:48:22
53 Iron Will AU20-UCA-0220 208.295 2020-09-20 13:36:30.438 1196.053 00:48:50
54 Peery Loft AU20-UCA-0005 208.66 2020-09-20 13:39:09.715 1187.864 00:51:02
55 Dry Creek Lofts AU20-NEBO-357 210.271 2020-09-20 13:42:15.231 1185.182 00:52:08
56 Craig Allred AU20-UVI-358 204.725 2020-09-20 13:39:04.976 1165.760 00:55:50
57 Riley Allred AU20-UCA-106 204.725 2020-09-20 13:39:06.480 1165.666 00:55:51
58 Riley Allred AU20-UCA-116 204.725 2020-09-20 13:39:46.300 1163.168 00:56:31
59 Peery Loft AU20-UCA-0007 208.66 2020-09-20 13:45:43.801 1163.153 00:57:37
60 Peery Loft AU20-UCA-0004 208.66 2020-09-20 13:45:45.458 1163.051 00:57:38
61 Riley Allred AU20-UCA-101 204.725 2020-09-20 13:39:49.934 1162.941 00:56:35
62 Craig Allred AU20-UVI-311 204.725 2020-09-20 13:45:58.490 1140.333 01:02:43
63 Dry Creek Lofts AU20-NEBO-352 210.271 2020-09-20 14:00:05.093 1121.159 01:09:58
64 Riley Allred AU20-UCA-153 204.725 2020-09-20 13:56:11.575 1104.612 01:12:56
65 Iron Will AU20-UCA-0037 208.295 2020-09-20 14:03:52.385 1098.019 01:16:12
66 Sherwood Loft AU20-NEBO-634 212.275 2020-09-20 14:13:18.945 1088.220 01:20:43
67 Dry Creek Lofts AU20-NEB0-334 210.271 2020-09-20 14:25:38.161 1040.608 01:35:31
68 Dry Creek Lofts AU20-NEBO-348 210.271 2020-09-20 14:25:46.411 1040.206 01:35:40
69 Riley Allred AU20-UCA-144 204.725 2020-09-20 14:17:24.407 1037.160 01:34:09
70 Craig Allred AU20-UVI-314 204.725 2020-09-20 14:21:00.163 1026.535 01:37:45
71 Iron Will AU20-UCA-0258 208.295 2020-09-20 14:44:06.517 979.927 01:56:26
72 Dry Creek Lofts AU-20-NEBO-323 210.271 2020-09-20 14:58:09.515 953.419 02:08:03
73 Iron Will AU20-UCA-0281 208.295 2020-09-20 14:54:59.483 952.227 02:07:19
74 Dry Creek Lofts AU20-NEBO-349 210.271 2020-09-20 15:00:56.536 946.630 02:10:50
75 Cole Allred AU20-NLI-2021 204.725 2020-09-20 14:56:25.337 932.443 02:13:10
76 Peery Loft AU20-UCA-0022 208.66 2020-09-20 15:27:15.825 880.120 02:39:09
77 Peery Loft AU20-UCA-0019 208.66 2020-09-20 15:34:32.673 865.026 02:46:25
78 Craig Allred AU20-UVI-352 204.725 2020-09-20 15:37:45.256 842.345 02:54:30
79 Iron Will AU20-UCA-0246 208.295 2020-09-20 16:24:45.308 772.185 03:37:05
80 Ross Johnson AU20-NEBO-28 203.416 2020-09-20 16:19:51.500 761.959 03:38:13
81 Iron Will AU20-UCA-0201 208.295 2020-09-20 17:00:32.591 718.057 04:12:52
82 Ross Johnson AU20-NEBO-15 203.416 2020-09-20 17:01:18.632 700.187 04:19:41
83 Peery Loft AU20-UCA-0012 208.66 2020-09-20 17:15:40.906 698.602 04:27:34
84 Peery Loft AU20-UCA-0035 208.66 2020-09-20 17:16:10.694 697.943 04:28:03
85 Craig Allred AU20-UVI-357 204.725 2020-09-20 17:56:26.917 636.098 05:13:12
86 Riley Allred AU20-UCA-166 204.725 2020-09-20 18:03:13.791 628.573 05:19:59
87 Peery Loft AU20-UCA-0034 208.66 2020-09-20 19:01:06.028 581.908 06:12:59
88 Sherwood Loft AU20-UCA-429 212.275 2020-09-21 08:19:11.428 477.485 08:39:51
89 Iron Will AU20-UCA-0266 208.295 2020-09-21 09:25:51.160 431.749 09:51:26
Cole Allred AU20-HARM-2616 0 0000-00-00 00:00:00.000 0.000 00:00:00
Cole Allred AU20-NLI-2008 0 0000-00-00 00:00:00.000 0.000 00:00:00
Cole Allred AU20-NLI-2413 0 0000-00-00 00:00:00.000 0.000 00:00:00
Cole Allred IF20-VDB-0055 0 0000-00-00 00:00:00.000 0.000 00:00:00
Craig Allred AU20-UVI-304 0 0000-00-00 00:00:00.000 0.000 00:00:00
Craig Allred AU20-UVI-341 0 0000-00-00 00:00:00.000 0.000 00:00:00
Craig Allred AU20-UVI-346 0 0000-00-00 00:00:00.000 0.000 00:00:00
Craig Allred AU20-UVI-350 0 0000-00-00 00:00:00.000 0.000 00:00:00
Craig Allred AU20-UVI-367 0 0000-00-00 00:00:00.000 0.000 00:00:00
Dry Creek Lofts AU20-NEBO-303 0 0000-00-00 00:00:00.000 0.000 00:00:00
Dry Creek Lofts AU20-NEBO-315 0 0000-00-00 00:00:00.000 0.000 00:00:00
Dry Creek Lofts AU20-NEBO-319 0 0000-00-00 00:00:00.000 0.000 00:00:00
Dry Creek Lofts AU20-NEBO-320 0 0000-00-00 00:00:00.000 0.000 00:00:00
Dry Creek Lofts AU20-NEBO-325 0 0000-00-00 00:00:00.000 0.000 00:00:00
Dry Creek Lofts AU20-NEBO-346 0 0000-00-00 00:00:00.000 0.000 00:00:00
Dry Creek Lofts AU20-NEBO-360 0 0000-00-00 00:00:00.000 0.000 00:00:00
Dry Creek Lofts AU20-NEBO-365 0 0000-00-00 00:00:00.000 0.000 00:00:00
Dry Creek Lofts AU20-UCA-301 0 0000-00-00 00:00:00.000 0.000 00:00:00
Iron Will AU20-UCA-0204 0 0000-00-00 00:00:00.000 0.000 00:00:00
Iron Will AU20-UCA-0206 0 0000-00-00 00:00:00.000 0.000 00:00:00
Iron Will AU20-UCA-0212 0 0000-00-00 00:00:00.000 0.000 00:00:00
Iron Will AU20-UCA-0215 0 0000-00-00 00:00:00.000 0.000 00:00:00
Iron Will AU20-UCA-0225 0 0000-00-00 00:00:00.000 0.000 00:00:00
Iron Will AU20-UCA-0227 0 0000-00-00 00:00:00.000 0.000 00:00:00
Iron Will AU20-UCA-0231 0 0000-00-00 00:00:00.000 0.000 00:00:00
Iron Will AU20-UCA-0234 0 0000-00-00 00:00:00.000 0.000 00:00:00
Iron Will AU20-UCA-0260 0 0000-00-00 00:00:00.000 0.000 00:00:00
Iron Will AU20-UCA-0283 0 0000-00-00 00:00:00.000 0.000 00:00:00
Peery Loft AU20-UCA-0001 0 0000-00-00 00:00:00.000 0.000 00:00:00
Peery Loft AU20-UCA-0008 0 0000-00-00 00:00:00.000 0.000 00:00:00
Peery Loft AU20-UCA-0031 0 0000-00-00 00:00:00.000 0.000 00:00:00
Peery Loft AU20-UCA-0038 0 0000-00-00 00:00:00.000 0.000 00:00:00
Peery Loft AU20-UCA-0041 0 0000-00-00 00:00:00.000 0.000 00:00:00
Peery Loft AU20-UCA-0042 0 0000-00-00 00:00:00.000 0.000 00:00:00
Peery Loft AU20-UCA-0044 0 0000-00-00 00:00:00.000 0.000 00:00:00
Riley Allred AU20-UCA-138 0 0000-00-00 00:00:00.000 0.000 00:00:00
Riley Allred AU20-UCA-156 0 0000-00-00 00:00:00.000 0.000 00:00:00
Riley Allred AU20-UCA-160 0 0000-00-00 00:00:00.000 0.000 00:00:00
Riley Allred AU20-UCA-163 0 0000-00-00 00:00:00.000 0.000 00:00:00
Ross Johnson AU20-NEBO-13 0 0000-00-00 00:00:00.000 0.000 00:00:00
Ross Johnson AU20-NEBO-29 0 0000-00-00 00:00:00.000 0.000 00:00:00
Ross Johnson AU20-NEBO-33 0 0000-00-00 00:00:00.000 0.000 00:00:00
Ross Johnson AU20-NEBO-37 0 0000-00-00 00:00:00.000 0.000 00:00:00
Ross Johnson AU20-NEBO-55 0 0000-00-00 00:00:00.000 0.000 00:00:00
Ross Johnson AU20-NEBO-56 0 0000-00-00 00:00:00.000 0.000 00:00:00
Sherwood Loft AU20-NEBO-638 0 0000-00-00 00:00:00.000 0.000 00:00:00
Sherwood Loft AU20-UCA-439 0 0000-00-00 00:00:00.000 0.000 00:00:00
Sherwood Loft AU20-UCA-448 0 0000-00-00 00:00:00.000 0.000 00:00:00
Sherwood Loft AU20-UCA-449 0 0000-00-00 00:00:00.000 0.000 00:00:00